createdAt,value
2023-01-07T19:18:22.273Z,70.20
2023-01-07T19:20:53.188Z,66.00
2023-01-07T19:23:21.516Z,73.40
2023-01-07T19:26:07.608Z,48.20
2023-01-07T19:28:35.506Z,58.50
2023-01-07T19:31:07.780Z,63.00
2023-01-07T19:33:35.947Z,62.60
2023-01-07T19:36:07.672Z,53.90
2023-01-07T19:38:47.738Z,50.00
2023-01-07T19:41:19.602Z,52.60
2023-01-07T19:43:47.975Z,46.70
2023-01-07T19:46:16.272Z,60.80
2023-01-07T19:48:48.060Z,52.70
2023-01-07T19:51:16.054Z,53.00
2023-01-07T19:53:44.192Z,44.60
2023-01-07T19:58:40.790Z,47.70
2023-01-07T20:01:08.522Z,37.20
2023-01-07T20:03:36.442Z,52.20
2023-01-07T20:06:04.383Z,54.70
2023-01-07T20:08:32.024Z,52.40
2023-01-07T20:10:59.769Z,50.70
2023-01-07T20:13:27.338Z,49.10
2023-01-07T20:15:54.989Z,46.10
2023-01-07T20:18:22.709Z,26.80
2023-01-07T20:20:50.382Z,36.30
2023-01-07T20:23:18.313Z,37.50
2023-01-07T20:25:46.091Z,44.90
2023-01-07T20:28:14.883Z,43.00
2023-01-07T20:30:42.778Z,55.70
2023-01-07T20:33:10.347Z,72.40
2023-01-07T20:35:39.633Z,66.80
2023-01-07T20:38:09.676Z,55.20
2023-01-07T20:40:37.726Z,80.00
2023-01-07T20:43:05.850Z,99.00
2023-01-07T20:45:33.811Z,97.00
2023-01-07T20:48:01.615Z,106.70
2023-01-07T20:50:31.856Z,107.00
2023-01-07T20:53:02.051Z,128.90
2023-01-07T20:55:30.328Z,125.30
2023-01-07T20:57:58.273Z,107.50
2023-01-07T21:00:29.166Z,110.20
2023-01-07T21:02:56.978Z,98.70
2023-01-07T21:05:24.709Z,89.60
2023-01-07T21:07:53.831Z,80.90
2023-01-07T21:10:21.338Z,80.40
2023-01-07T21:12:48.893Z,67.30
2023-01-07T21:15:16.451Z,37.00
2023-01-07T21:17:43.961Z,37.90
2023-01-07T21:20:11.454Z,38.70
2023-01-07T21:22:39.140Z,35.10
2023-01-07T21:25:09.271Z,42.10
2023-01-07T21:27:37.008Z,42.20
2023-01-07T21:30:06.174Z,37.40
2023-01-07T21:32:33.917Z,33.50
2023-01-07T21:35:01.396Z,32.60
2023-01-07T21:37:29.422Z,41.80
2023-01-07T21:39:57.067Z,71.10
2023-01-07T21:42:26.240Z,68.10
2023-01-07T21:44:53.758Z,75.90
2023-01-07T21:47:21.334Z,77.80
2023-01-07T21:49:51.581Z,94.00
2023-01-07T21:52:20.069Z,96.00
2023-01-07T21:54:47.547Z,94.90
2023-01-07T21:57:15.228Z,92.40
2023-01-07T21:59:42.794Z,88.40
2023-01-07T22:02:10.435Z,94.50
2023-01-07T22:04:40.605Z,74.30
2023-01-07T22:07:08.163Z,84.40
2023-01-07T22:09:35.722Z,75.80
2023-01-07T22:12:03.200Z,73.80
2023-01-07T22:14:30.740Z,59.90
2023-01-07T22:16:58.268Z,58.00
2023-01-07T22:19:25.978Z,42.70
2023-01-07T22:21:53.516Z,37.40
2023-01-07T22:24:21.047Z,41.70
2023-01-07T22:26:48.770Z,47.70
2023-01-07T22:29:16.429Z,56.70
2023-01-07T22:31:48.181Z,37.00
2023-01-07T22:34:15.873Z,27.20
2023-01-07T22:36:43.503Z,37.20
2023-01-07T22:39:11.089Z,35.90
2023-01-07T22:41:38.591Z,29.70
2023-01-07T22:44:06.406Z,38.40
2023-01-07T22:46:33.895Z,37.00
2023-01-07T22:49:01.364Z,35.90
2023-01-07T22:51:28.899Z,31.20
2023-01-07T22:53:56.401Z,37.00
2023-01-07T22:56:24.253Z,47.10
2023-01-07T22:58:51.756Z,48.60
2023-01-07T23:01:19.313Z,40.50
2023-01-07T23:03:47.014Z,24.30
2023-01-07T23:06:14.849Z,27.60
2023-01-07T23:08:42.403Z,37.00
2023-01-07T23:11:10.705Z,38.20
2023-01-07T23:13:38.476Z,34.40
2023-01-07T23:16:06.794Z,43.90
2023-01-07T23:18:35.054Z,47.90
2023-01-07T23:21:02.568Z,44.30
2023-01-07T23:23:30.043Z,47.30
2023-01-07T23:25:57.572Z,30.60
2023-01-07T23:28:25.098Z,45.50
2023-01-07T23:30:52.565Z,35.40
2023-01-07T23:33:20.257Z,38.60
2023-01-07T23:35:47.976Z,52.30
2023-01-07T23:38:17.606Z,33.50
2023-01-07T23:40:46.037Z,38.70
2023-01-07T23:43:13.598Z,35.70
2023-01-07T23:45:41.203Z,27.20
2023-01-07T23:48:08.692Z,27.60
2023-01-07T23:50:36.212Z,29.80
2023-01-07T23:53:03.765Z,40.90
2023-01-07T23:55:31.479Z,44.00
2023-01-07T23:57:59.212Z,34.20
